sensor_id;sensor_type;location;lat;lon;timestamp;P1;durP1;ratioP1;P2;durP2;ratioP2
64353;SDS011;50681;53.334;-6.536;2023-05-07T00:02:20;20.03;;;5.00;;
64353;SDS011;50681;53.334;-6.536;2023-05-07T00:04:46;18.07;;;5.07;;
64353;SDS011;50681;53.334;-6.536;2023-05-07T00:07:11;20.77;;;5.30;;
64353;SDS011;50681;53.334;-6.536;2023-05-07T00:09:36;22.27;;;4.87;;
64353;SDS011;50681;53.334;-6.536;2023-05-07T00:12:02;20.90;;;4.75;;
64353;SDS011;50681;53.334;-6.536;2023-05-07T00:14:28;18.13;;;5.40;;
64353;SDS011;50681;53.334;-6.536;2023-05-07T00:16:53;19.83;;;5.43;;
64353;SDS011;50681;53.334;-6.536;2023-05-07T00:19:19;22.33;;;5.60;;
64353;SDS011;50681;53.334;-6.536;2023-05-07T00:21:44;20.97;;;5.80;;
64353;SDS011;50681;53.334;-6.536;2023-05-07T00:24:10;17.63;;;5.80;;
64353;SDS011;50681;53.334;-6.536;2023-05-07T00:26:35;25.07;;;6.20;;
64353;SDS011;50681;53.334;-6.536;2023-05-07T00:29:01;33.27;;;5.83;;
64353;SDS011;50681;53.334;-6.536;2023-05-07T00:31:27;20.08;;;5.78;;
64353;SDS011;50681;53.334;-6.536;2023-05-07T00:33:53;28.20;;;6.23;;
64353;SDS011;50681;53.334;-6.536;2023-05-07T00:36:18;17.10;;;5.07;;
64353;SDS011;50681;53.334;-6.536;2023-05-07T00:38:44;27.83;;;5.80;;
64353;SDS011;50681;53.334;-6.536;2023-05-07T00:41:09;17.20;;;5.60;;
64353;SDS011;50681;53.334;-6.536;2023-05-07T00:43:34;22.67;;;6.33;;
64353;SDS011;50681;53.334;-6.536;2023-05-07T00:46:00;24.52;;;6.50;;
64353;SDS011;50681;53.334;-6.536;2023-05-07T00:48:26;21.80;;;5.72;;
64353;SDS011;50681;53.334;-6.536;2023-05-07T00:50:51;25.43;;;6.60;;
64353;SDS011;50681;53.334;-6.536;2023-05-07T00:53:23;25.08;;;6.10;;
64353;SDS011;50681;53.334;-6.536;2023-05-07T00:55:49;27.38;;;6.45;;
64353;SDS011;50681;53.334;-6.536;2023-05-07T00:58:15;24.60;;;6.28;;
64353;SDS011;50681;53.334;-6.536;2023-05-07T01:03:07;26.67;;;6.35;;
64353;SDS011;50681;53.334;-6.536;2023-05-07T01:05:33;25.95;;;6.47;;
64353;SDS011;50681;53.334;-6.536;2023-05-07T01:07:59;30.85;;;5.70;;
64353;SDS011;50681;53.334;-6.536;2023-05-07T01:12:51;24.67;;;6.28;;
64353;SDS011;50681;53.334;-6.536;2023-05-07T01:15:18;21.08;;;6.15;;
64353;SDS011;50681;53.334;-6.536;2023-05-07T01:17:44;25.50;;;6.07;;
64353;SDS011;50681;53.334;-6.536;2023-05-07T01:20:10;21.58;;;6.03;;
64353;SDS011;50681;53.334;-6.536;2023-05-07T01:22:37;22.42;;;6.18;;
64353;SDS011;50681;53.334;-6.536;2023-05-07T01:27:34;34.65;;;6.75;;
64353;SDS011;50681;53.334;-6.536;2023-05-07T01:30:01;29.25;;;6.57;;
64353;SDS011;50681;53.334;-6.536;2023-05-07T01:32:28;27.00;;;6.43;;
64353;SDS011;50681;53.334;-6.536;2023-05-07T01:34:58;16.77;;;5.63;;
64353;SDS011;50681;53.334;-6.536;2023-05-07T01:37:26;28.92;;;5.82;;
64353;SDS011;50681;53.334;-6.536;2023-05-07T01:39:53;26.15;;;6.82;;
64353;SDS011;50681;53.334;-6.536;2023-05-07T01:42:19;22.23;;;5.90;;
64353;SDS011;50681;53.334;-6.536;2023-05-07T01:44:45;17.33;;;6.37;;
64353;SDS011;50681;53.334;-6.536;2023-05-07T01:47:11;25.00;;;6.15;;
64353;SDS011;50681;53.334;-6.536;2023-05-07T01:49:38;22.88;;;6.22;;
64353;SDS011;50681;53.334;-6.536;2023-05-07T01:52:06;21.55;;;6.03;;
64353;SDS011;50681;53.334;-6.536;2023-05-07T01:54:32;21.08;;;6.00;;
64353;SDS011;50681;53.334;-6.536;2023-05-07T01:56:57;18.80;;;7.13;;
64353;SDS011;50681;53.334;-6.536;2023-05-07T01:59:23;21.00;;;6.53;;
64353;SDS011;50681;53.334;-6.536;2023-05-07T02:01:48;24.60;;;6.00;;
64353;SDS011;50681;53.334;-6.536;2023-05-07T02:04:14;22.83;;;5.97;;
64353;SDS011;50681;53.334;-6.536;2023-05-07T02:06:39;19.37;;;6.27;;
64353;SDS011;50681;53.334;-6.536;2023-05-07T02:09:05;20.70;;;6.33;;
64353;SDS011;50681;53.334;-6.536;2023-05-07T02:11:34;25.38;;;6.57;;
64353;SDS011;50681;53.334;-6.536;2023-05-07T02:13:59;25.47;;;6.03;;
64353;SDS011;50681;53.334;-6.536;2023-05-07T02:16:25;31.52;;;6.95;;
64353;SDS011;50681;53.334;-6.536;2023-05-07T02:18:50;13.17;;;5.70;;
64353;SDS011;50681;53.334;-6.536;2023-05-07T02:21:16;19.20;;;6.20;;
64353;SDS011;50681;53.334;-6.536;2023-05-07T02:23:41;20.80;;;6.07;;
64353;SDS011;50681;53.334;-6.536;2023-05-07T02:26:07;21.87;;;6.70;;
64353;SDS011;50681;53.334;-6.536;2023-05-07T02:28:32;20.70;;;6.00;;
64353;SDS011;50681;53.334;-6.536;2023-05-07T02:31:01;18.60;;;6.32;;
64353;SDS011;50681;53.334;-6.536;2023-05-07T02:33:28;22.55;;;6.75;;
64353;SDS011;50681;53.334;-6.536;2023-05-07T02:35:53;24.70;;;7.03;;
64353;SDS011;50681;53.334;-6.536;2023-05-07T02:38:18;22.00;;;5.40;;
64353;SDS011;50681;53.334;-6.536;2023-05-07T02:40:44;27.90;;;6.27;;
64353;SDS011;50681;53.334;-6.536;2023-05-07T02:43:09;20.87;;;5.73;;
64353;SDS011;50681;53.334;-6.536;2023-05-07T02:45:35;30.30;;;6.60;;
64353;SDS011;50681;53.334;-6.536;2023-05-07T02:48:02;23.25;;;6.25;;
64353;SDS011;50681;53.334;-6.536;2023-05-07T02:50:28;26.15;;;6.40;;
64353;SDS011;50681;53.334;-6.536;2023-05-07T02:52:54;27.25;;;6.10;;
64353;SDS011;50681;53.334;-6.536;2023-05-07T02:55:20;18.00;;;5.63;;
64353;SDS011;50681;53.334;-6.536;2023-05-07T02:57:46;21.50;;;6.07;;
64353;SDS011;50681;53.334;-6.536;2023-05-07T03:00:16;22.47;;;6.13;;
64353;SDS011;50681;53.334;-6.536;2023-05-07T03:02:45;19.67;;;6.00;;
64353;SDS011;50681;53.334;-6.536;2023-05-07T03:05:11;21.77;;;6.80;;
64353;SDS011;50681;53.334;-6.536;2023-05-07T03:07:38;27.33;;;6.70;;
64353;SDS011;50681;53.334;-6.536;2023-05-07T03:10:04;20.20;;;6.57;;
64353;SDS011;50681;53.334;-6.536;2023-05-07T03:12:30;22.00;;;5.95;;
64353;SDS011;50681;53.334;-6.536;2023-05-07T03:14:56;23.05;;;6.10;;
64353;SDS011;50681;53.334;-6.536;2023-05-07T03:17:22;25.17;;;7.40;;
64353;SDS011;50681;53.334;-6.536;2023-05-07T03:19:47;17.40;;;6.57;;
64353;SDS011;50681;53.334;-6.536;2023-05-07T03:22:13;19.73;;;6.33;;
64353;SDS011;50681;53.334;-6.536;2023-05-07T03:24:38;22.13;;;6.07;;
64353;SDS011;50681;53.334;-6.536;2023-05-07T03:27:03;19.00;;;5.63;;
64353;SDS011;50681;53.334;-6.536;2023-05-07T03:29:30;16.42;;;6.07;;
64353;SDS011;50681;53.334;-6.536;2023-05-07T03:31:56;18.43;;;6.63;;
64353;SDS011;50681;53.334;-6.536;2023-05-07T03:34:21;13.50;;;6.23;;
64353;SDS011;50681;53.334;-6.536;2023-05-07T03:36:50;13.27;;;5.67;;
64353;SDS011;50681;53.334;-6.536;2023-05-07T03:39:16;24.85;;;6.88;;
64353;SDS011;50681;53.334;-6.536;2023-05-07T03:41:41;10.33;;;5.67;;
64353;SDS011;50681;53.334;-6.536;2023-05-07T03:44:07;18.20;;;5.50;;
64353;SDS011;50681;53.334;-6.536;2023-05-07T03:46:34;17.87;;;5.47;;
64353;SDS011;50681;53.334;-6.536;2023-05-07T03:49:00;18.80;;;6.00;;
64353;SDS011;50681;53.334;-6.536;2023-05-07T03:51:25;15.57;;;5.70;;
64353;SDS011;50681;53.334;-6.536;2023-05-07T03:53:52;17.92;;;5.65;;
64353;SDS011;50681;53.334;-6.536;2023-05-07T03:56:18;22.10;;;5.50;;
64353;SDS011;50681;53.334;-6.536;2023-05-07T03:58:44;22.60;;;5.47;;
64353;SDS011;50681;53.334;-6.536;2023-05-07T04:01:10;15.88;;;4.88;;
64353;SDS011;50681;53.334;-6.536;2023-05-07T04:03:36;15.75;;;5.13;;
64353;SDS011;50681;53.334;-6.536;2023-05-07T04:06:01;10.97;;;4.87;;
64353;SDS011;50681;53.334;-6.536;2023-05-07T04:08:27;12.48;;;5.13;;
64353;SDS011;50681;53.334;-6.536;2023-05-07T04:10:58;14.50;;;5.00;;
64353;SDS011;50681;53.334;-6.536;2023-05-07T04:13:24;16.63;;;5.15;;
64353;SDS011;50681;53.334;-6.536;2023-05-07T04:15:54;17.35;;;4.80;;
64353;SDS011;50681;53.334;-6.536;2023-05-07T04:18:20;16.67;;;5.03;;
64353;SDS011;50681;53.334;-6.536;2023-05-07T04:20:47;14.57;;;5.18;;
64353;SDS011;50681;53.334;-6.536;2023-05-07T04:25:38;10.73;;;3.90;;
64353;SDS011;50681;53.334;-6.536;2023-05-07T04:28:03;7.93;;;4.27;;
64353;SDS011;50681;53.334;-6.536;2023-05-07T04:30:29;12.83;;;3.83;;
64353;SDS011;50681;53.334;-6.536;2023-05-07T04:32:55;12.95;;;4.32;;
64353;SDS011;50681;53.334;-6.536;2023-05-07T04:35:21;13.10;;;4.20;;
64353;SDS011;50681;53.334;-6.536;2023-05-07T04:37:47;14.48;;;4.28;;
64353;SDS011;50681;53.334;-6.536;2023-05-07T04:40:13;9.88;;;3.72;;
64353;SDS011;50681;53.334;-6.536;2023-05-07T04:42:38;9.80;;;3.80;;
64353;SDS011;50681;53.334;-6.536;2023-05-07T04:45:04;13.00;;;3.73;;
64353;SDS011;50681;53.334;-6.536;2023-05-07T04:47:30;6.72;;;3.50;;
64353;SDS011;50681;53.334;-6.536;2023-05-07T04:49:55;12.73;;;3.93;;
64353;SDS011;50681;53.334;-6.536;2023-05-07T04:52:22;10.70;;;4.03;;
64353;SDS011;50681;53.334;-6.536;2023-05-07T04:54:47;11.30;;;4.33;;
64353;SDS011;50681;53.334;-6.536;2023-05-07T04:57:13;14.23;;;4.10;;
64353;SDS011;50681;53.334;-6.536;2023-05-07T04:59:38;14.10;;;3.80;;
64353;SDS011;50681;53.334;-6.536;2023-05-07T05:02:04;9.30;;;3.60;;
64353;SDS011;50681;53.334;-6.536;2023-05-07T05:04:30;7.72;;;3.50;;
64353;SDS011;50681;53.334;-6.536;2023-05-07T05:06:55;8.70;;;3.77;;
64353;SDS011;50681;53.334;-6.536;2023-05-07T05:09:21;11.68;;;3.90;;
64353;SDS011;50681;53.334;-6.536;2023-05-07T05:11:47;12.93;;;4.07;;
64353;SDS011;50681;53.334;-6.536;2023-05-07T05:14:12;12.17;;;4.17;;
64353;SDS011;50681;53.334;-6.536;2023-05-07T05:16:37;8.77;;;4.37;;
64353;SDS011;50681;53.334;-6.536;2023-05-07T05:19:03;9.30;;;4.07;;
64353;SDS011;50681;53.334;-6.536;2023-05-07T05:21:28;11.27;;;4.53;;
64353;SDS011;50681;53.334;-6.536;2023-05-07T05:23:54;14.40;;;5.30;;
64353;SDS011;50681;53.334;-6.536;2023-05-07T05:26:19;17.67;;;5.27;;
64353;SDS011;50681;53.334;-6.536;2023-05-07T05:31:14;22.52;;;6.07;;
64353;SDS011;50681;53.334;-6.536;2023-05-07T05:33:41;16.25;;;5.22;;
64353;SDS011;50681;53.334;-6.536;2023-05-07T05:36:08;13.17;;;5.30;;
64353;SDS011;50681;53.334;-6.536;2023-05-07T05:38:34;13.05;;;5.10;;
64353;SDS011;50681;53.334;-6.536;2023-05-07T05:41:00;14.23;;;4.77;;
64353;SDS011;50681;53.334;-6.536;2023-05-07T05:43:25;17.57;;;5.57;;
64353;SDS011;50681;53.334;-6.536;2023-05-07T05:45:50;17.77;;;5.33;;
64353;SDS011;50681;53.334;-6.536;2023-05-07T05:48:16;12.10;;;4.77;;
64353;SDS011;50681;53.334;-6.536;2023-05-07T05:50:41;14.13;;;5.60;;
64353;SDS011;50681;53.334;-6.536;2023-05-07T05:53:07;11.10;;;4.85;;
64353;SDS011;50681;53.334;-6.536;2023-05-07T05:55:33;21.33;;;5.70;;
64353;SDS011;50681;53.334;-6.536;2023-05-07T05:57:59;15.63;;;5.57;;
64353;SDS011;50681;53.334;-6.536;2023-05-07T06:00:25;18.13;;;6.05;;
64353;SDS011;50681;53.334;-6.536;2023-05-07T06:02:51;12.18;;;5.70;;
64353;SDS011;50681;53.334;-6.536;2023-05-07T06:05:17;18.13;;;5.63;;
64353;SDS011;50681;53.334;-6.536;2023-05-07T06:07:42;18.20;;;5.57;;
64353;SDS011;50681;53.334;-6.536;2023-05-07T06:10:08;16.03;;;5.43;;
64353;SDS011;50681;53.334;-6.536;2023-05-07T06:12:33;8.53;;;4.30;;
64353;SDS011;50681;53.334;-6.536;2023-05-07T06:14:58;13.53;;;5.20;;
64353;SDS011;50681;53.334;-6.536;2023-05-07T06:17:24;16.90;;;5.30;;
64353;SDS011;50681;53.334;-6.536;2023-05-07T06:19:49;14.40;;;4.47;;
64353;SDS011;50681;53.334;-6.536;2023-05-07T06:22:16;14.70;;;4.20;;
64353;SDS011;50681;53.334;-6.536;2023-05-07T06:24:41;13.40;;;4.83;;
64353;SDS011;50681;53.334;-6.536;2023-05-07T06:27:07;11.37;;;4.30;;
64353;SDS011;50681;53.334;-6.536;2023-05-07T06:29:32;9.07;;;4.07;;
64353;SDS011;50681;53.334;-6.536;2023-05-07T06:32:08;10.85;;;3.85;;
64353;SDS011;50681;53.334;-6.536;2023-05-07T06:34:35;15.25;;;3.50;;
64353;SDS011;50681;53.334;-6.536;2023-05-07T06:37:01;11.20;;;3.60;;
64353;SDS011;50681;53.334;-6.536;2023-05-07T06:39:26;13.93;;;3.60;;
64353;SDS011;50681;53.334;-6.536;2023-05-07T06:41:52;10.33;;;3.40;;
64353;SDS011;50681;53.334;-6.536;2023-05-07T06:44:17;14.43;;;3.80;;
64353;SDS011;50681;53.334;-6.536;2023-05-07T06:46:43;8.17;;;3.33;;
64353;SDS011;50681;53.334;-6.536;2023-05-07T06:49:08;8.53;;;3.23;;
64353;SDS011;50681;53.334;-6.536;2023-05-07T06:51:34;8.13;;;3.00;;
64353;SDS011;50681;53.334;-6.536;2023-05-07T06:53:59;15.45;;;3.70;;
64353;SDS011;50681;53.334;-6.536;2023-05-07T06:56:25;7.97;;;3.03;;
64353;SDS011;50681;53.334;-6.536;2023-05-07T06:58:50;11.53;;;3.30;;
64353;SDS011;50681;53.334;-6.536;2023-05-07T07:01:16;4.97;;;2.63;;
64353;SDS011;50681;53.334;-6.536;2023-05-07T07:03:41;11.87;;;3.10;;
64353;SDS011;50681;53.334;-6.536;2023-05-07T07:06:07;12.67;;;3.20;;
64353;SDS011;50681;53.334;-6.536;2023-05-07T07:08:32;11.00;;;3.50;;
64353;SDS011;50681;53.334;-6.536;2023-05-07T07:10:58;12.77;;;3.53;;
64353;SDS011;50681;53.334;-6.536;2023-05-07T07:13:23;5.23;;;2.47;;
64353;SDS011;50681;53.334;-6.536;2023-05-07T07:15:52;10.17;;;2.90;;
64353;SDS011;50681;53.334;-6.536;2023-05-07T07:18:21;6.57;;;2.72;;
64353;SDS011;50681;53.334;-6.536;2023-05-07T07:20:46;8.03;;;3.03;;
64353;SDS011;50681;53.334;-6.536;2023-05-07T07:23:12;10.40;;;3.10;;
64353;SDS011;50681;53.334;-6.536;2023-05-07T07:25:37;9.13;;;2.90;;
64353;SDS011;50681;53.334;-6.536;2023-05-07T07:28:03;13.60;;;2.87;;
64353;SDS011;50681;53.334;-6.536;2023-05-07T07:30:28;11.82;;;3.35;;
64353;SDS011;50681;53.334;-6.536;2023-05-07T07:32:54;6.10;;;2.42;;
64353;SDS011;50681;53.334;-6.536;2023-05-07T07:35:22;7.05;;;2.67;;
64353;SDS011;50681;53.334;-6.536;2023-05-07T07:37:48;11.43;;;2.90;;
64353;SDS011;50681;53.334;-6.536;2023-05-07T07:40:15;6.03;;;2.40;;
64353;SDS011;50681;53.334;-6.536;2023-05-07T07:42:40;5.57;;;2.47;;
64353;SDS011;50681;53.334;-6.536;2023-05-07T07:45:06;7.77;;;2.20;;
64353;SDS011;50681;53.334;-6.536;2023-05-07T07:47:32;6.78;;;2.22;;
64353;SDS011;50681;53.334;-6.536;2023-05-07T07:49:58;5.77;;;2.10;;
64353;SDS011;50681;53.334;-6.536;2023-05-07T07:52:23;4.90;;;1.80;;
64353;SDS011;50681;53.334;-6.536;2023-05-07T07:54:49;9.77;;;2.50;;
64353;SDS011;50681;53.334;-6.536;2023-05-07T07:57:14;4.93;;;1.80;;
64353;SDS011;50681;53.334;-6.536;2023-05-07T07:59:40;4.17;;;1.67;;
64353;SDS011;50681;53.334;-6.536;2023-05-07T08:02:07;9.85;;;2.45;;
64353;SDS011;50681;53.334;-6.536;2023-05-07T08:04:32;6.77;;;2.13;;
64353;SDS011;50681;53.334;-6.536;2023-05-07T08:06:58;5.97;;;2.05;;
64353;SDS011;50681;53.334;-6.536;2023-05-07T08:09:23;6.27;;;1.90;;
64353;SDS011;50681;53.334;-6.536;2023-05-07T08:11:50;7.07;;;1.55;;
64353;SDS011;50681;53.334;-6.536;2023-05-07T08:14:16;7.77;;;2.00;;
64353;SDS011;50681;53.334;-6.536;2023-05-07T08:16:41;10.43;;;2.00;;
64353;SDS011;50681;53.334;-6.536;2023-05-07T08:19:06;6.90;;;2.00;;
64353;SDS011;50681;53.334;-6.536;2023-05-07T08:21:32;10.67;;;2.47;;
64353;SDS011;50681;53.334;-6.536;2023-05-07T08:23:57;11.53;;;1.97;;
64353;SDS011;50681;53.334;-6.536;2023-05-07T08:26:23;7.43;;;2.30;;
64353;SDS011;50681;53.334;-6.536;2023-05-07T08:28:48;9.57;;;2.10;;
64353;SDS011;50681;53.334;-6.536;2023-05-07T08:31:14;6.80;;;2.17;;
64353;SDS011;50681;53.334;-6.536;2023-05-07T08:33:39;7.57;;;2.13;;
64353;SDS011;50681;53.334;-6.536;2023-05-07T08:36:05;9.33;;;2.27;;
64353;SDS011;50681;53.334;-6.536;2023-05-07T08:38:31;9.38;;;2.05;;
64353;SDS011;50681;53.334;-6.536;2023-05-07T08:40:56;4.88;;;1.98;;
64353;SDS011;50681;53.334;-6.536;2023-05-07T08:43:22;6.30;;;2.10;;
64353;SDS011;50681;53.334;-6.536;2023-05-07T08:45:53;9.68;;;2.47;;
64353;SDS011;50681;53.334;-6.536;2023-05-07T08:48:21;6.82;;;2.38;;
64353;SDS011;50681;53.334;-6.536;2023-05-07T08:50:50;9.20;;;2.28;;
64353;SDS011;50681;53.334;-6.536;2023-05-07T08:53:16;7.82;;;2.30;;
64353;SDS011;50681;53.334;-6.536;2023-05-07T08:55:41;7.50;;;2.22;;
64353;SDS011;50681;53.334;-6.536;2023-05-07T08:58:07;10.43;;;2.47;;
64353;SDS011;50681;53.334;-6.536;2023-05-07T09:00:33;9.20;;;2.42;;
64353;SDS011;50681;53.334;-6.536;2023-05-07T09:03:02;8.68;;;2.10;;
64353;SDS011;50681;53.334;-6.536;2023-05-07T09:05:28;6.97;;;2.13;;
64353;SDS011;50681;53.334;-6.536;2023-05-07T09:07:53;7.00;;;2.20;;
64353;SDS011;50681;53.334;-6.536;2023-05-07T09:10:20;6.47;;;2.42;;
64353;SDS011;50681;53.334;-6.536;2023-05-07T09:12:46;5.95;;;2.30;;
64353;SDS011;50681;53.334;-6.536;2023-05-07T09:15:13;6.22;;;1.98;;
64353;SDS011;50681;53.334;-6.536;2023-05-07T09:17:38;5.90;;;2.13;;
64353;SDS011;50681;53.334;-6.536;2023-05-07T09:20:08;15.43;;;2.50;;
64353;SDS011;50681;53.334;-6.536;2023-05-07T09:22:37;10.23;;;3.95;;
64353;SDS011;50681;53.334;-6.536;2023-05-07T09:25:03;6.72;;;2.10;;
64353;SDS011;50681;53.334;-6.536;2023-05-07T09:29:55;8.95;;;1.90;;
64353;SDS011;50681;53.334;-6.536;2023-05-07T09:32:20;7.63;;;2.10;;
64353;SDS011;50681;53.334;-6.536;2023-05-07T09:34:46;6.67;;;2.07;;
64353;SDS011;50681;53.334;-6.536;2023-05-07T09:37:13;8.35;;;1.75;;
64353;SDS011;50681;53.334;-6.536;2023-05-07T09:39:42;3.70;;;1.38;;
64353;SDS011;50681;53.334;-6.536;2023-05-07T09:42:08;11.57;;;2.25;;
64353;SDS011;50681;53.334;-6.536;2023-05-07T09:44:35;6.47;;;1.95;;
64353;SDS011;50681;53.334;-6.536;2023-05-07T09:47:01;7.55;;;1.95;;
64353;SDS011;50681;53.334;-6.536;2023-05-07T09:49:30;7.47;;;2.20;;
64353;SDS011;50681;53.334;-6.536;2023-05-07T09:51:58;7.35;;;2.15;;
64353;SDS011;50681;53.334;-6.536;2023-05-07T09:54:25;6.20;;;1.50;;
64353;SDS011;50681;53.334;-6.536;2023-05-07T09:56:52;6.75;;;2.08;;
64353;SDS011;50681;53.334;-6.536;2023-05-07T09:59:18;5.60;;;1.70;;
64353;SDS011;50681;53.334;-6.536;2023-05-07T10:01:45;7.93;;;1.63;;
64353;SDS011;50681;53.334;-6.536;2023-05-07T10:04:11;7.35;;;1.70;;
64353;SDS011;50681;53.334;-6.536;2023-05-07T10:06:37;9.85;;;2.05;;
64353;SDS011;50681;53.334;-6.536;2023-05-07T10:09:03;8.10;;;1.85;;
64353;SDS011;50681;53.334;-6.536;2023-05-07T10:11:33;9.30;;;1.98;;
64353;SDS011;50681;53.334;-6.536;2023-05-07T10:13:59;3.35;;;1.40;;
64353;SDS011;50681;53.334;-6.536;2023-05-07T10:16:27;5.20;;;1.48;;
64353;SDS011;50681;53.334;-6.536;2023-05-07T10:18:56;5.85;;;1.48;;
64353;SDS011;50681;53.334;-6.536;2023-05-07T10:21:23;5.13;;;1.65;;
64353;SDS011;50681;53.334;-6.536;2023-05-07T10:23:58;3.88;;;1.40;;
64353;SDS011;50681;53.334;-6.536;2023-05-07T10:26:36;8.80;;;1.73;;
64353;SDS011;50681;53.334;-6.536;2023-05-07T10:29:07;8.55;;;1.85;;
64353;SDS011;50681;53.334;-6.536;2023-05-07T10:31:46;5.10;;;1.60;;
64353;SDS011;50681;53.334;-6.536;2023-05-07T10:34:13;5.60;;;1.60;;
64353;SDS011;50681;53.334;-6.536;2023-05-07T10:36:49;5.50;;;1.60;;
64353;SDS011;50681;53.334;-6.536;2023-05-07T10:39:16;5.07;;;1.50;;
64353;SDS011;50681;53.334;-6.536;2023-05-07T10:41:42;5.80;;;1.10;;
64353;SDS011;50681;53.334;-6.536;2023-05-07T10:44:08;8.10;;;1.30;;
64353;SDS011;50681;53.334;-6.536;2023-05-07T10:46:33;7.35;;;1.25;;
64353;SDS011;50681;53.334;-6.536;2023-05-07T10:51:26;3.87;;;1.30;;
64353;SDS011;50681;53.334;-6.536;2023-05-07T10:54:18;15.27;;;4.82;;
64353;SDS011;50681;53.334;-6.536;2023-05-07T10:56:43;16.13;;;4.95;;
64353;SDS011;50681;53.334;-6.536;2023-05-07T11:01:59;4.07;;;1.15;;
64353;SDS011;50681;53.334;-6.536;2023-05-07T11:04:28;5.77;;;1.23;;
64353;SDS011;50681;53.334;-6.536;2023-05-07T11:17:34;3.08;;;1.08;;
64353;SDS011;50681;53.334;-6.536;2023-05-07T11:20:16;4.93;;;1.35;;
64353;SDS011;50681;53.334;-6.536;2023-05-07T11:22:42;4.07;;;1.20;;
64353;SDS011;50681;53.334;-6.536;2023-05-07T11:25:08;4.00;;;1.02;;
64353;SDS011;50681;53.334;-6.536;2023-05-07T11:27:33;4.97;;;1.13;;
64353;SDS011;50681;53.334;-6.536;2023-05-07T11:29:59;3.60;;;1.10;;
64353;SDS011;50681;53.334;-6.536;2023-05-07T11:32:28;4.22;;;1.10;;
64353;SDS011;50681;53.334;-6.536;2023-05-07T11:34:55;5.53;;;1.10;;
64353;SDS011;50681;53.334;-6.536;2023-05-07T11:37:22;5.50;;;1.55;;
64353;SDS011;50681;53.334;-6.536;2023-05-07T11:39:49;7.72;;;1.33;;
64353;SDS011;50681;53.334;-6.536;2023-05-07T11:42:39;3.22;;;1.13;;
64353;SDS011;50681;53.334;-6.536;2023-05-07T11:45:07;2.93;;;1.10;;
64353;SDS011;50681;53.334;-6.536;2023-05-07T11:47:33;2.90;;;1.00;;
64353;SDS011;50681;53.334;-6.536;2023-05-07T11:52:29;2.47;;;0.80;;
64353;SDS011;50681;53.334;-6.536;2023-05-07T11:54:58;2.42;;;0.93;;
64353;SDS011;50681;53.334;-6.536;2023-05-07T11:57:25;2.35;;;0.90;;
64353;SDS011;50681;53.334;-6.536;2023-05-07T11:59:58;3.72;;;1.13;;
64353;SDS011;50681;53.334;-6.536;2023-05-07T12:02:27;2.70;;;1.17;;
64353;SDS011;50681;53.334;-6.536;2023-05-07T12:04:53;3.10;;;1.02;;
64353;SDS011;50681;53.334;-6.536;2023-05-07T12:07:19;3.90;;;1.08;;
64353;SDS011;50681;53.334;-6.536;2023-05-07T12:09:45;2.03;;;0.73;;
64353;SDS011;50681;53.334;-6.536;2023-05-07T12:12:12;3.30;;;1.20;;
64353;SDS011;50681;53.334;-6.536;2023-05-07T12:14:43;4.03;;;0.90;;
64353;SDS011;50681;53.334;-6.536;2023-05-07T12:17:10;3.63;;;1.27;;
64353;SDS011;50681;53.334;-6.536;2023-05-07T12:19:38;4.20;;;1.02;;
64353;SDS011;50681;53.334;-6.536;2023-05-07T12:22:05;3.35;;;1.10;;
64353;SDS011;50681;53.334;-6.536;2023-05-07T12:24:45;3.40;;;1.27;;
64353;SDS011;50681;53.334;-6.536;2023-05-07T12:27:23;4.45;;;1.10;;
64353;SDS011;50681;53.334;-6.536;2023-05-07T12:29:49;3.60;;;1.27;;
64353;SDS011;50681;53.334;-6.536;2023-05-07T12:32:19;3.92;;;1.30;;
64353;SDS011;50681;53.334;-6.536;2023-05-07T12:34:46;3.00;;;0.95;;
64353;SDS011;50681;53.334;-6.536;2023-05-07T12:37:15;8.23;;;1.55;;
64353;SDS011;50681;53.334;-6.536;2023-05-07T12:39:44;4.10;;;1.83;;
64353;SDS011;50681;53.334;-6.536;2023-05-07T12:42:16;3.38;;;1.73;;
64353;SDS011;50681;53.334;-6.536;2023-05-07T12:44:45;6.38;;;3.80;;
64353;SDS011;50681;53.334;-6.536;2023-05-07T12:47:11;4.20;;;2.35;;
64353;SDS011;50681;53.334;-6.536;2023-05-07T12:49:37;4.18;;;1.33;;
64353;SDS011;50681;53.334;-6.536;2023-05-07T12:59:35;4.68;;;1.05;;
64353;SDS011;50681;53.334;-6.536;2023-05-07T13:02:02;4.63;;;1.02;;
64353;SDS011;50681;53.334;-6.536;2023-05-07T13:04:27;2.70;;;1.20;;
64353;SDS011;50681;53.334;-6.536;2023-05-07T13:06:53;6.10;;;1.60;;
64353;SDS011;50681;53.334;-6.536;2023-05-07T13:09:18;3.63;;;1.35;;
64353;SDS011;50681;53.334;-6.536;2023-05-07T13:11:44;5.75;;;1.10;;
64353;SDS011;50681;53.334;-6.536;2023-05-07T13:14:10;4.00;;;1.23;;
64353;SDS011;50681;53.334;-6.536;2023-05-07T13:16:35;3.25;;;1.20;;
64353;SDS011;50681;53.334;-6.536;2023-05-07T13:19:00;9.93;;;4.40;;
64353;SDS011;50681;53.334;-6.536;2023-05-07T13:21:26;5.15;;;1.80;;
64353;SDS011;50681;53.334;-6.536;2023-05-07T13:23:51;6.67;;;2.97;;
64353;SDS011;50681;53.334;-6.536;2023-05-07T13:26:17;7.45;;;1.42;;
64353;SDS011;50681;53.334;-6.536;2023-05-07T13:28:43;2.75;;;1.20;;
64353;SDS011;50681;53.334;-6.536;2023-05-07T13:31:11;10.15;;;1.42;;
64353;SDS011;50681;53.334;-6.536;2023-05-07T13:33:36;5.43;;;1.58;;
64353;SDS011;50681;53.334;-6.536;2023-05-07T13:36:02;21.23;;;2.15;;
64353;SDS011;50681;53.334;-6.536;2023-05-07T13:38:29;7.35;;;1.50;;
64353;SDS011;50681;53.334;-6.536;2023-05-07T13:40:55;7.85;;;1.52;;
64353;SDS011;50681;53.334;-6.536;2023-05-07T13:43:20;3.63;;;1.20;;
64353;SDS011;50681;53.334;-6.536;2023-05-07T13:45:46;4.25;;;1.13;;
64353;SDS011;50681;53.334;-6.536;2023-05-07T13:48:11;2.15;;;1.23;;
64353;SDS011;50681;53.334;-6.536;2023-05-07T13:50:37;10.20;;;1.30;;
64353;SDS011;50681;53.334;-6.536;2023-05-07T13:53:02;4.60;;;1.33;;
64353;SDS011;50681;53.334;-6.536;2023-05-07T13:55:30;5.57;;;1.27;;
64353;SDS011;50681;53.334;-6.536;2023-05-07T13:57:59;13.85;;;1.63;;
64353;SDS011;50681;53.334;-6.536;2023-05-07T14:00:25;6.32;;;1.38;;
64353;SDS011;50681;53.334;-6.536;2023-05-07T14:02:52;13.05;;;1.98;;
64353;SDS011;50681;53.334;-6.536;2023-05-07T14:07:43;6.20;;;1.02;;
64353;SDS011;50681;53.334;-6.536;2023-05-07T14:10:09;4.40;;;1.80;;
64353;SDS011;50681;53.334;-6.536;2023-05-07T14:12:36;10.43;;;1.50;;
64353;SDS011;50681;53.334;-6.536;2023-05-07T14:15:01;5.00;;;1.27;;
64353;SDS011;50681;53.334;-6.536;2023-05-07T14:17:27;7.00;;;1.45;;
64353;SDS011;50681;53.334;-6.536;2023-05-07T14:19:53;7.78;;;0.93;;
64353;SDS011;50681;53.334;-6.536;2023-05-07T14:22:22;3.40;;;1.13;;
64353;SDS011;50681;53.334;-6.536;2023-05-07T14:24:48;5.93;;;1.35;;
64353;SDS011;50681;53.334;-6.536;2023-05-07T14:27:14;4.60;;;1.30;;
64353;SDS011;50681;53.334;-6.536;2023-05-07T14:29:40;5.30;;;1.40;;
64353;SDS011;50681;53.334;-6.536;2023-05-07T14:32:06;3.70;;;1.00;;
64353;SDS011;50681;53.334;-6.536;2023-05-07T14:34:31;3.63;;;1.20;;
64353;SDS011;50681;53.334;-6.536;2023-05-07T14:36:57;7.47;;;1.13;;
64353;SDS011;50681;53.334;-6.536;2023-05-07T14:39:24;6.75;;;1.55;;
64353;SDS011;50681;53.334;-6.536;2023-05-07T14:41:51;7.82;;;1.67;;
64353;SDS011;50681;53.334;-6.536;2023-05-07T14:44:19;8.52;;;1.65;;
64353;SDS011;50681;53.334;-6.536;2023-05-07T14:46:45;10.48;;;1.48;;
64353;SDS011;50681;53.334;-6.536;2023-05-07T14:49:11;5.20;;;1.38;;
64353;SDS011;50681;53.334;-6.536;2023-05-07T14:51:45;7.97;;;2.00;;
64353;SDS011;50681;53.334;-6.536;2023-05-07T14:54:12;4.70;;;1.27;;
64353;SDS011;50681;53.334;-6.536;2023-05-07T14:56:39;3.75;;;1.20;;
64353;SDS011;50681;53.334;-6.536;2023-05-07T14:59:05;8.23;;;1.77;;
64353;SDS011;50681;53.334;-6.536;2023-05-07T15:01:33;15.65;;;1.77;;
64353;SDS011;50681;53.334;-6.536;2023-05-07T15:04:00;6.88;;;1.73;;
64353;SDS011;50681;53.334;-6.536;2023-05-07T15:06:25;6.47;;;1.67;;
64353;SDS011;50681;53.334;-6.536;2023-05-07T15:08:51;5.13;;;1.33;;